Time;durP1;ratioP1;P1;durP2;ratioP2;P2;SDS_P1;SDS_P2;PMS_P1;PMS_P2;Temp;Humidity;BMP_temperature;BMP_pressure;BME280_temperature;BME280_humidity;BME280_pressure;Samples;Min_cycle;Max_cycle;Signal;HPM_P1;HPM_P2
2020/12/14 00:00:50;;;;;;;843.13;774.53;;;;;;;;;;5010807;28;20192;-66
2020/12/14 00:03:17;;;;;;;867.03;792.33;;;;;;;;;;5014166;28;20188;-66
2020/12/14 00:05:44;;;;;;;751.37;692.13;;;;;;;;;;5013775;28;20199;-68
2020/12/14 00:08:10;;;;;;;778.17;717.53;;;;;;;;;;5018672;28;20195;-68
2020/12/14 00:10:37;;;;;;;850.63;783.23;;;;;;;;;;5014707;28;20643;-67
2020/12/14 00:13:06;;;;;;;779.13;714.77;;;;;;;;;;5017432;28;20190;-66
2020/12/14 00:15:33;;;;;;;848.60;779.17;;;;;;;;;;5014697;28;20227;-67
2020/12/14 00:17:59;;;;;;;842.87;772.53;;;;;;;;;;5017232;28;20184;-67
2020/12/14 00:20:26;;;;;;;794.50;733.30;;;;;;;;;;5016922;28;20986;-67
2020/12/14 00:22:54;;;;;;;727.33;670.70;;;;;;;;;;5021696;28;20188;-67
2020/12/14 00:25:21;;;;;;;746.60;689.77;;;;;;;;;;5018647;28;20203;-66
2020/12/14 00:27:49;;;;;;;832.20;765.83;;;;;;;;;;5022291;28;20194;-67
2020/12/14 00:30:15;;;;;;;870.10;798.13;;;;;;;;;;5019383;28;20272;-67
2020/12/14 00:32:44;;;;;;;816.77;748.90;;;;;;;;;;5027615;28;20264;-67
2020/12/14 00:35:11;;;;;;;904.60;817.73;;;;;;;;;;5014827;28;21120;-67
2020/12/14 00:37:39;;;;;;;861.37;784.87;;;;;;;;;;5017977;28;20249;-66
2020/12/14 00:40:08;;;;;;;740.97;684.07;;;;;;;;;;5017729;28;20279;-68
2020/12/14 00:42:36;;;;;;;867.60;801.00;;;;;;;;;;5019872;28;20184;-67
2020/12/14 00:45:03;;;;;;;848.83;779.73;;;;;;;;;;5017701;28;20188;-67
2020/12/14 00:47:29;;;;;;;767.00;709.80;;;;;;;;;;5007922;28;20183;-66
2020/12/14 00:49:56;;;;;;;843.33;778.93;;;;;;;;;;5012879;28;20681;-66
2020/12/14 00:52:25;;;;;;;823.27;755.93;;;;;;;;;;5011415;28;20181;-67
2020/12/14 00:54:51;;;;;;;741.67;686.83;;;;;;;;;;5026269;28;20992;-67
2020/12/14 00:57:21;;;;;;;878.33;806.83;;;;;;;;;;5018633;28;20179;-68
2020/12/14 00:59:48;;;;;;;879.67;801.33;;;;;;;;;;5018404;28;20583;-67
2020/12/14 01:02:15;;;;;;;881.40;800.53;;;;;;;;;;5016300;28;20215;-67
2020/12/14 01:04:42;;;;;;;742.13;687.10;;;;;;;;;;5023502;28;20255;-67
2020/12/14 01:07:08;;;;;;;779.47;719.77;;;;;;;;;;5018221;28;20624;-68
2020/12/14 01:09:35;;;;;;;782.53;721.43;;;;;;;;;;5017835;28;20192;-67
2020/12/14 01:12:04;;;;;;;789.77;727.33;;;;;;;;;;5019299;28;20952;-66
2020/12/14 01:14:31;;;;;;;898.53;823.33;;;;;;;;;;5019096;28;20200;-68
2020/12/14 01:16:58;;;;;;;814.00;747.57;;;;;;;;;;5015034;28;20219;-67
2020/12/14 01:19:24;;;;;;;797.67;733.53;;;;;;;;;;5016366;28;20194;-67
2020/12/14 01:21:51;;;;;;;806.07;736.93;;;;;;;;;;5015202;28;20627;-67
2020/12/14 01:24:20;;;;;;;863.17;790.83;;;;;;;;;;5020306;28;20188;-66
2020/12/14 01:26:47;;;;;;;834.27;765.03;;;;;;;;;;5017880;28;20729;-66
2020/12/14 14:14:34;;;;;;;441.10;412.17;;;;;;;;;;5073787;27;20712;-67
2020/12/14 14:17:00;;;;;;;552.03;510.43;;;;;;;;;;5072829;28;20196;-68
2020/12/14 14:19:27;;;;;;;520.70;484.73;;;;;;;;;;5069346;28;20297;-69
2020/12/14 14:21:54;;;;;;;557.63;519.27;;;;;;;;;;5069962;28;20537;-68
2020/12/14 14:24:21;;;;;;;616.43;571.50;;;;;;;;;;5071939;28;20217;-69
2020/12/14 14:26:49;;;;;;;511.90;477.33;;;;;;;;;;5076022;28;20231;-67
2020/12/14 14:29:16;;;;;;;593.10;549.90;;;;;;;;;;5075509;28;20174;-69
2020/12/14 14:31:42;;;;;;;548.27;510.83;;;;;;;;;;5070441;28;20185;-70
2020/12/14 14:34:09;;;;;;;578.80;537.40;;;;;;;;;;5069283;28;20671;-69
2020/12/14 14:36:36;;;;;;;707.43;652.47;;;;;;;;;;5071360;28;20291;-68
2020/12/14 14:39:04;;;;;;;565.93;526.53;;;;;;;;;;5075112;28;20179;-67
2020/12/14 14:41:30;;;;;;;583.33;538.93;;;;;;;;;;5062974;28;20306;-68
2020/12/14 14:43:57;;;;;;;570.80;530.37;;;;;;;;;;5067888;28;20732;-69
2020/12/14 14:46:23;;;;;;;701.80;646.57;;;;;;;;;;5064374;28;20167;-68
2020/12/14 14:48:50;;;;;;;633.60;589.40;;;;;;;;;;5056756;28;20174;-67
2020/12/14 14:51:17;;;;;;;534.20;495.97;;;;;;;;;;5074037;28;20175;-69
2020/12/14 14:53:44;;;;;;;671.10;619.53;;;;;;;;;;5074915;28;20724;-67
2020/12/14 14:56:10;;;;;;;770.73;709.20;;;;;;;;;;5068428;28;20163;-69
2020/12/14 14:58:37;;;;;;;631.07;583.47;;;;;;;;;;5067990;28;20213;-67
2020/12/14 15:01:03;;;;;;;715.80;660.97;;;;;;;;;;5062255;28;20519;-66
2020/12/14 15:03:30;;;;;;;598.30;555.83;;;;;;;;;;5067911;28;20228;-66
2020/12/14 15:05:56;;;;;;;537.03;500.70;;;;;;;;;;5067020;28;20180;-68
2020/12/14 15:08:23;;;;;;;654.30;603.57;;;;;;;;;;5063855;28;20461;-68
2020/12/14 15:10:50;;;;;;;541.63;506.97;;;;;;;;;;5061567;28;20244;-66
2020/12/14 15:13:16;;;;;;;553.07;516.63;;;;;;;;;;5066738;28;20230;-67
2020/12/14 15:15:44;;;;;;;597.33;556.57;;;;;;;;;;5064316;28;20503;-67
2020/12/14 15:18:11;;;;;;;670.53;618.63;;;;;;;;;;5080238;28;20197;-66
2020/12/14 15:20:38;;;;;;;669.97;621.60;;;;;;;;;;5087188;28;20425;-65
2020/12/14 15:23:05;;;;;;;704.33;650.43;;;;;;;;;;5074171;28;20175;-66
2020/12/14 15:25:32;;;;;;;666.97;619.97;;;;;;;;;;5063425;28;20947;-69
2020/12/14 15:27:58;;;;;;;538.50;500.23;;;;;;;;;;5044329;28;20183;-66
2020/12/14 15:30:25;;;;;;;718.13;660.67;;;;;;;;;;5049487;28;20641;-68
2020/12/14 15:32:52;;;;;;;696.00;645.60;;;;;;;;;;5060106;28;20211;-68
2020/12/14 15:35:18;;;;;;;708.00;655.90;;;;;;;;;;5052933;28;20197;-67
2020/12/14 15:37:45;;;;;;;646.57;598.80;;;;;;;;;;5051339;28;20195;-67
2020/12/14 15:40:12;;;;;;;735.00;675.00;;;;;;;;;;5053289;28;20258;-67
2020/12/14 15:42:39;;;;;;;734.17;679.60;;;;;;;;;;5053928;28;20664;-64
2020/12/14 15:45:06;;;;;;;797.73;728.17;;;;;;;;;;5053308;28;20194;-66
2020/12/14 15:47:32;;;;;;;730.73;673.00;;;;;;;;;;5057982;28;20281;-66
2020/12/14 15:49:59;;;;;;;755.30;697.53;;;;;;;;;;5050164;28;20272;-68
2020/12/14 15:52:26;;;;;;;785.53;723.57;;;;;;;;;;5047036;28;20214;-68
2020/12/14 15:54:52;;;;;;;721.90;666.40;;;;;;;;;;5050151;28;20570;-66
2020/12/14 15:57:19;;;;;;;720.70;668.03;;;;;;;;;;5049891;28;20184;-66
2020/12/14 15:59:46;;;;;;;708.03;655.53;;;;;;;;;;5048169;28;20177;-68
2020/12/14 16:02:14;;;;;;;714.23;663.57;;;;;;;;;;5050503;28;20192;-69
2020/12/14 16:04:41;;;;;;;685.40;632.30;;;;;;;;;;5046873;28;20473;-67
2020/12/14 16:07:13;;;;;;;669.37;619.00;;;;;;;;;;5055047;28;20180;-68
2020/12/14 16:09:40;;;;;;;680.20;630.30;;;;;;;;;;5056024;28;20660;-66
2020/12/14 16:12:06;;;;;;;647.30;602.70;;;;;;;;;;5053597;28;20171;-69
2020/12/14 16:14:33;;;;;;;721.13;667.50;;;;;;;;;;5056963;28;20206;-66
2020/12/14 16:17:01;;;;;;;609.57;568.23;;;;;;;;;;5045631;28;20180;-66
2020/12/14 16:19:27;;;;;;;727.63;670.93;;;;;;;;;;5055341;28;20685;-69
2020/12/14 16:21:54;;;;;;;688.00;639.07;;;;;;;;;;5054922;28;20679;-66
2020/12/14 16:24:20;;;;;;;672.87;620.93;;;;;;;;;;5051448;28;20414;-67
2020/12/14 16:26:51;;;;;;;847.77;772.77;;;;;;;;;;5053852;28;20189;-68
2020/12/14 16:29:19;;;;;;;768.50;705.47;;;;;;;;;;5063408;28;20742;-66
2020/12/14 16:31:46;;;;;;;650.87;603.57;;;;;;;;;;5065859;28;20216;-66
2020/12/14 16:34:13;;;;;;;753.17;688.17;;;;;;;;;;5051768;28;20665;-65
2020/12/14 16:36:39;;;;;;;824.23;752.50;;;;;;;;;;5052899;28;20206;-66
2020/12/14 16:39:06;;;;;;;595.13;548.30;;;;;;;;;;5054006;28;20201;-66
2020/12/14 16:41:32;;;;;;;665.07;610.23;;;;;;;;;;5062381;28;20219;-67
2020/12/14 16:43:59;;;;;;;708.60;649.23;;;;;;;;;;5044829;28;20656;-67
2020/12/14 16:46:30;;;;;;;874.43;789.77;;;;;;;;;;5051935;28;20172;-68
2020/12/14 16:48:59;;;;;;;740.50;678.60;;;;;;;;;;5052344;28;20182;-69
2020/12/14 16:51:26;;;;;;;704.67;644.77;;;;;;;;;;5052183;28;21025;-67
2020/12/14 16:53:53;;;;;;;783.27;711.17;;;;;;;;;;5054986;28;20229;-67
2020/12/14 16:56:19;;;;;;;687.83;629.30;;;;;;;;;;5059108;28;20228;-68
2020/12/14 16:58:46;;;;;;;532.50;493.97;;;;;;;;;;5053053;28;20184;-67
2020/12/14 17:01:14;;;;;;;604.77;558.73;;;;;;;;;;5041205;28;20267;-69
2020/12/14 17:03:40;;;;;;;669.70;618.97;;;;;;;;;;5057309;28;20972;-68
2020/12/14 17:06:07;;;;;;;821.47;751.87;;;;;;;;;;5040949;28;20564;-68
2020/12/14 17:08:35;;;;;;;682.97;628.50;;;;;;;;;;5044025;28;20294;-68
2020/12/14 17:11:02;;;;;;;640.13;593.53;;;;;;;;;;5054056;28;20183;-67
2020/12/14 17:13:28;;;;;;;735.57;677.97;;;;;;;;;;5042307;28;20238;-67
2020/12/14 17:15:55;;;;;;;672.30;618.27;;;;;;;;;;5049618;28;20176;-67
2020/12/14 17:18:22;;;;;;;743.40;683.07;;;;;;;;;;5049819;28;20646;-68
2020/12/14 17:20:51;;;;;;;770.13;706.40;;;;;;;;;;5058731;28;20248;-68
2020/12/14 17:23:21;;;;;;;723.87;669.20;;;;;;;;;;5045711;28;20184;-70
2020/12/14 17:25:48;;;;;;;859.17;785.57;;;;;;;;;;5044781;28;20913;-67
2020/12/14 17:28:17;;;;;;;790.80;725.07;;;;;;;;;;5054910;28;20187;-67
2020/12/14 17:30:44;;;;;;;697.00;644.97;;;;;;;;;;5052582;28;20579;-66
2020/12/14 17:33:11;;;;;;;788.97;726.03;;;;;;;;;;5057792;28;20224;-69
2020/12/14 17:35:37;;;;;;;804.57;739.03;;;;;;;;;;5052104;28;20302;-67
2020/12/14 17:38:04;;;;;;;782.63;721.13;;;;;;;;;;5041166;28;20199;-68
2020/12/14 17:40:30;;;;;;;846.80;774.43;;;;;;;;;;5046394;28;20178;-68
2020/12/14 17:42:57;;;;;;;739.20;681.50;;;;;;;;;;5059149;28;20183;-68
2020/12/14 17:45:24;;;;;;;856.10;782.27;;;;;;;;;;5057234;28;20293;-68
2020/12/14 17:47:51;;;;;;;734.77;676.20;;;;;;;;;;5046160;28;20180;-68
2020/12/14 17:50:17;;;;;;;769.33;711.13;;;;;;;;;;5046436;28;20210;-67
2020/12/14 17:52:46;;;;;;;772.57;716.17;;;;;;;;;;5057851;28;20306;-68
2020/12/14 17:55:13;;;;;;;668.23;618.30;;;;;;;;;;5055377;28;20277;-67
2020/12/14 17:57:40;;;;;;;716.17;657.57;;;;;;;;;;5039478;28;20294;-68
2020/12/14 18:00:14;;;;;;;720.13;662.83;;;;;;;;;;5051469;28;20183;-68
2020/12/14 18:02:43;;;;;;;692.70;640.50;;;;;;;;;;5058909;28;20641;-68
2020/12/14 18:05:10;;;;;;;741.37;683.40;;;;;;;;;;5038596;28;20626;-67
2020/12/14 18:07:37;;;;;;;759.80;699.40;;;;;;;;;;5040662;28;20191;-70
2020/12/14 18:10:04;;;;;;;772.87;713.47;;;;;;;;;;5060100;28;20697;-64
2020/12/14 18:12:31;;;;;;;808.80;743.63;;;;;;;;;;5064073;28;20536;-69
2020/12/14 18:14:58;;;;;;;779.17;716.43;;;;;;;;;;5044577;28;20308;-68
2020/12/14 18:17:24;;;;;;;728.60;672.70;;;;;;;;;;5050083;28;20202;-67
2020/12/14 18:19:51;;;;;;;820.50;752.77;;;;;;;;;;5044309;28;20226;-69
2020/12/14 18:22:17;;;;;;;761.80;703.47;;;;;;;;;;5040780;28;20187;-69
2020/12/14 18:24:44;;;;;;;762.20;705.47;;;;;;;;;;5057947;28;20192;-68
2020/12/14 18:27:11;;;;;;;755.23;696.33;;;;;;;;;;5063006;28;20199;-68
2020/12/14 18:29:37;;;;;;;779.33;717.10;;;;;;;;;;5059662;28;20697;-69
2020/12/14 18:52:57;;;;;;;848.67;775.87;;;;;;;;;;5039354;28;20187;-68
2020/12/14 19:35:22;;;;;;;728.90;673.77;;;;;;;;;;5048251;28;20244;-68
2020/12/14 21:23:39;;;;;;;793.50;726.17;;;;;;;;;;5055787;28;20194;-66
2020/12/14 21:26:05;;;;;;;850.53;768.63;;;;;;;;;;5049217;28;20704;-67
2020/12/14 21:28:32;;;;;;;792.13;724.80;;;;;;;;;;5041489;28;20183;-67
2020/12/14 21:30:59;;;;;;;898.23;810.63;;;;;;;;;;5046254;28;20191;-68
2020/12/14 21:33:26;;;;;;;684.20;626.27;;;;;;;;;;5043257;28;20237;-67
2020/12/14 21:35:52;;;;;;;795.57;721.47;;;;;;;;;;5050123;28;20575;-70
2020/12/14 21:38:19;;;;;;;714.90;654.43;;;;;;;;;;5042348;28;20868;-67
2020/12/14 21:40:45;;;;;;;680.20;623.73;;;;;;;;;;5045661;28;20182;-68
2020/12/14 21:43:12;;;;;;;701.37;641.00;;;;;;;;;;5045839;28;20190;-68
2020/12/14 21:45:39;;;;;;;805.03;730.87;;;;;;;;;;5060313;28;20712;-69
2020/12/14 21:48:06;;;;;;;802.07;733.23;;;;;;;;;;5044062;28;20236;-68
2020/12/14 21:50:32;;;;;;;787.37;718.30;;;;;;;;;;5055034;28;20290;-70
2020/12/14 21:52:59;;;;;;;797.23;727.10;;;;;;;;;;5071590;22;20249;-67
2020/12/14 21:55:25;;;;;;;812.93;739.03;;;;;;;;;;5057484;28;20859;-74
2020/12/14 21:57:52;;;;;;;702.37;641.40;;;;;;;;;;5058768;28;20182;-73
2020/12/14 22:00:19;;;;;;;781.67;711.13;;;;;;;;;;5057146;28;20190;-73
2020/12/14 22:02:45;;;;;;;795.00;724.60;;;;;;;;;;5039016;28;20190;-73
2020/12/14 22:05:14;;;;;;;622.27;572.43;;;;;;;;;;5056725;28;20190;-74
2020/12/14 22:07:43;;;;;;;577.87;534.07;;;;;;;;;;5056104;28;20220;-67
2020/12/14 22:10:09;;;;;;;744.70;681.50;;;;;;;;;;5057743;28;20190;-67
2020/12/14 22:12:36;;;;;;;633.13;584.30;;;;;;;;;;5054127;28;20271;-69
2020/12/14 22:15:02;;;;;;;685.23;627.33;;;;;;;;;;5054018;28;20247;-69
2020/12/14 22:17:29;;;;;;;657.93;602.40;;;;;;;;;;5038272;28;20194;-69
2020/12/14 22:19:55;;;;;;;734.90;673.43;;;;;;;;;;5058020;28;20764;-68
2020/12/14 22:22:22;;;;;;;737.27;673.77;;;;;;;;;;5058246;28;20198;-67
2020/12/14 22:24:48;;;;;;;657.93;606.17;;;;;;;;;;5056158;28;20189;-67
2020/12/14 22:27:15;;;;;;;492.67;461.03;;;;;;;;;;5054247;28;20182;-68
2020/12/14 22:29:41;;;;;;;548.27;509.90;;;;;;;;;;5055903;28;20186;-64
2020/12/14 22:32:08;;;;;;;655.90;606.10;;;;;;;;;;5050663;28;20212;-73
2020/12/14 22:34:35;;;;;;;617.30;570.47;;;;;;;;;;5055259;28;20591;-73
2020/12/14 22:37:01;;;;;;;540.37;502.03;;;;;;;;;;5052624;28;20201;-71
2020/12/14 22:39:28;;;;;;;624.13;578.80;;;;;;;;;;5059630;28;20183;-72
2020/12/14 22:41:54;;;;;;;679.50;624.27;;;;;;;;;;5068183;28;20181;-74
2020/12/14 22:44:21;;;;;;;610.43;564.30;;;;;;;;;;5059068;28;20204;-74
2020/12/14 22:46:47;;;;;;;771.77;706.53;;;;;;;;;;5059265;28;20181;-71
2020/12/14 22:49:14;;;;;;;868.17;786.87;;;;;;;;;;5059154;28;20724;-73
2020/12/14 22:51:42;;;;;;;533.67;493.93;;;;;;;;;;5055333;28;20326;-73
2020/12/14 22:54:08;;;;;;;636.73;587.63;;;;;;;;;;5057512;28;20226;-74
2020/12/14 22:56:35;;;;;;;640.13;588.93;;;;;;;;;;5054240;28;20197;-73
2020/12/14 22:59:01;;;;;;;589.53;545.17;;;;;;;;;;5059336;28;20208;-73
2020/12/14 23:01:28;;;;;;;678.60;620.87;;;;;;;;;;5059854;28;20657;-74
2020/12/14 23:03:55;;;;;;;669.13;614.90;;;;;;;;;;5058893;28;20671;-75
2020/12/14 23:06:21;;;;;;;674.80;621.87;;;;;;;;;;5059310;28;20901;-73
2020/12/14 23:08:48;;;;;;;492.10;456.77;;;;;;;;;;5053533;28;20609;-74
2020/12/14 23:11:14;;;;;;;589.10;545.90;;;;;;;;;;5058331;28;20189;-73
2020/12/14 23:13:41;;;;;;;647.90;592.20;;;;;;;;;;5055215;28;20508;-72
2020/12/14 23:16:07;;;;;;;439.17;409.80;;;;;;;;;;5061996;28;20190;-73
2020/12/14 23:18:34;;;;;;;555.07;512.93;;;;;;;;;;5059324;28;20810;-68
2020/12/14 23:21:01;;;;;;;637.70;585.17;;;;;;;;;;5047704;28;20265;-68
2020/12/14 23:23:27;;;;;;;625.80;572.87;;;;;;;;;;5052081;28;20282;-73
2020/12/14 23:25:54;;;;;;;681.30;623.53;;;;;;;;;;5056424;28;20209;-68
2020/12/14 23:28:21;;;;;;;504.17;468.33;;;;;;;;;;5055499;28;20275;-67
2020/12/14 23:30:47;;;;;;;602.80;558.03;;;;;;;;;;5058354;28;20189;-74
2020/12/14 23:33:15;;;;;;;672.60;621.10;;;;;;;;;;5058852;28;20918;-74
2020/12/14 23:35:44;;;;;;;726.47;668.37;;;;;;;;;;5054764;28;20535;-75
2020/12/14 23:38:13;;;;;;;799.17;732.27;;;;;;;;;;5057750;28;20192;-76
2020/12/14 23:40:39;;;;;;;688.10;632.93;;;;;;;;;;5056161;28;20189;-75
2020/12/14 23:43:06;;;;;;;628.90;586.57;;;;;;;;;;5058302;28;20305;-76
2020/12/14 23:45:33;;;;;;;703.40;647.17;;;;;;;;;;5056063;28;20331;-75
2020/12/14 23:47:59;;;;;;;584.10;542.90;;;;;;;;;;5055695;28;20194;-75
2020/12/14 23:50:26;;;;;;;636.53;591.23;;;;;;;;;;5057698;28;20277;-74
2020/12/14 23:52:52;;;;;;;682.67;628.30;;;;;;;;;;5048845;28;20271;-73
2020/12/14 23:55:19;;;;;;;690.03;633.67;;;;;;;;;;5039702;28;20186;-75
2020/12/14 23:57:45;;;;;;;640.93;586.07;;;;;;;;;;5065374;28;20519;-68
